This is the latest recevied weather packets stored in our database for station/object IW1RID-3. If no packets are shown the sender has not sent any weather packets the latest 10 day(s).
| Time | Temp. | Humidity | Pressure | Rain* | Wind** | Luminosity | Snow |
|---|---|---|---|---|---|---|---|
| 1787392417 | 26.67° C | 54% | 1070.9 hPa | - | - | - | - |
| 1787391211 | 26.67° C | 55% | 1070.8 hPa | - | - | - | - |
| 1787390007 | 26.67° C | 58% | 1070.6 hPa | - | - | - | - |
| 1787388802 | 26.11° C | 60% | 1070.3 hPa | - | - | - | - |
| 1787387597 | 26.11° C | 50% | 1070.1 hPa | - | - | - | - |
| 1787386393 | 25° C | 50% | 1070 hPa | - | - | - | - |
| 1787385188 | 23.89° C | 51% | 1070 hPa | - | - | - | - |
| 1787383984 | 22.78° C | 51% | 1069.9 hPa | - | - | - | - |
| 1787382779 | 22.22° C | 53% | 1069.9 hPa | - | - | - | - |
| 1787381574 | 20.56° C | 62% | 1069.8 hPa | - | - | - | - |
| 1787380370 | 19.44° C | 62% | 1069.6 hPa | - | - | - | - |
| 1787379165 | 19.44° C | 65% | 1069.5 hPa | - | - | - | - |
| 1787377960 | 18.89° C | 68% | 1069.4 hPa | - | - | - | - |
| 1787375549 | 17.78° C | 75% | 1069 hPa | - | - | - | - |
| 1787374344 | 18.33° C | 69% | 1068.8 hPa | - | - | - | - |
| 1787373140 | 18.89° C | 66% | 1068.6 hPa | - | - | - | - |
| 1787371934 | 18.89° C | 70% | 1068.4 hPa | - | - | - | - |
| 1787370729 | 19.44° C | 65% | 1068.3 hPa | - | - | - | - |
| 1787369524 | 20° C | 63% | 1068.3 hPa | - | - | - | - |
| 1787368318 | 18.33° C | 75% | 1068.2 hPa | - | - | - | - |
| 1787367112 | 18.33° C | 77% | 1068.2 hPa | - | - | - | - |
| 1787365906 | 18.89° C | 74% | 1068.4 hPa | - | - | - | - |
| 1787364700 | 18.89° C | 76% | 1068.4 hPa | - | - | - | - |
| 1787363493 | 19.44° C | 71% | 1068.3 hPa | - | - | - | - |
| 1787362287 | 19.44° C | 73% | 1068.1 hPa | - | - | - | - |
* Rain since midnight (hover to see other rain measurements)
** Current wind speed in m/s (hover to see current wind gust speed)